createdAt,value
2022-10-12T00:01:01.481Z,6.30
2022-10-12T00:03:30.350Z,5.53
2022-10-12T00:06:07.677Z,5.32
2022-10-12T00:08:36.659Z,6.13
2022-10-12T00:11:04.831Z,5.43
2022-10-12T00:13:33.352Z,5.43
2022-10-12T00:16:04.491Z,6.00
2022-10-12T00:18:33.236Z,6.60
2022-10-12T00:21:07.746Z,5.53
2022-10-12T00:23:37.964Z,5.50
2022-10-12T00:26:09.017Z,5.15
2022-10-12T00:28:38.053Z,4.85
2022-10-12T00:31:09.491Z,5.13
2022-10-12T00:33:38.745Z,5.22
2022-10-12T00:36:16.555Z,5.13
2022-10-12T00:38:45.176Z,6.55
2022-10-12T00:41:15.250Z,5.80
2022-10-12T00:43:45.093Z,5.82
2022-10-12T00:46:19.145Z,6.88
2022-10-12T00:48:52.020Z,5.63
2022-10-12T00:51:23.555Z,5.90
2022-10-12T00:54:00.262Z,5.90
2022-10-12T00:56:31.526Z,5.80
2022-10-12T00:59:04.243Z,6.10
2022-10-12T01:01:35.063Z,6.22
2022-10-12T01:04:03.812Z,6.72
2022-10-12T01:06:34.509Z,6.35
2022-10-12T01:09:02.857Z,5.75
2022-10-12T01:11:30.977Z,6.93
2022-10-12T01:13:59.582Z,6.63
2022-10-12T01:16:34.482Z,6.72
2022-10-12T01:19:11.777Z,7.25
2022-10-12T01:21:47.407Z,6.90
2022-10-12T01:24:35.937Z,7.10
2022-10-12T01:27:33.757Z,6.97
2022-10-12T01:30:27.191Z,6.80
2022-10-12T01:33:20.674Z,5.63
2022-10-12T01:35:57.589Z,6.30
2022-10-12T01:38:34.807Z,7.50
2022-10-12T01:41:09.470Z,7.10
2022-10-12T01:43:40.337Z,7.10
2022-10-12T01:46:46.987Z,6.80
2022-10-12T01:49:18.143Z,5.80
2022-10-12T01:52:08.329Z,7.15
2022-10-12T01:54:48.181Z,6.13
2022-10-12T01:57:22.264Z,7.60
2022-10-12T02:00:01.929Z,8.15
2022-10-12T02:02:38.095Z,8.68
2022-10-12T02:05:14.371Z,8.68
2022-10-12T02:07:46.884Z,9.27
2022-10-12T02:10:22.211Z,10.05
2022-10-12T02:12:53.019Z,10.35
2022-10-12T02:15:24.645Z,10.52
2022-10-12T02:17:54.554Z,11.80
2022-10-12T02:20:25.980Z,10.15
2022-10-12T02:22:55.056Z,10.90
2022-10-12T02:25:26.986Z,10.82
2022-10-12T02:28:01.486Z,9.57
2022-10-12T02:30:30.757Z,9.98
2022-10-12T02:33:07.229Z,10.15
2022-10-12T02:35:41.880Z,10.20
2022-10-12T02:38:15.121Z,10.65
2022-10-12T02:40:49.650Z,9.68
2022-10-12T02:43:23.451Z,9.65
2022-10-12T02:48:23.779Z,9.77
2022-10-12T02:50:55.605Z,8.85
2022-10-12T02:53:25.625Z,8.20
2022-10-12T02:55:56.465Z,8.98
2022-10-12T02:58:25.370Z,9.57
2022-10-12T03:00:54.014Z,10.05
2022-10-12T03:03:24.112Z,11.25
2022-10-12T03:05:52.318Z,9.48
2022-10-12T03:08:20.544Z,10.18
2022-10-12T03:10:48.965Z,10.68
2022-10-12T03:13:17.303Z,10.45
2022-10-12T03:15:45.428Z,8.80
2022-10-12T03:18:13.856Z,10.45
2022-10-12T03:20:43.640Z,10.27
2022-10-12T03:23:11.808Z,12.73
2022-10-12T03:25:40.156Z,12.07
2022-10-12T03:28:08.576Z,11.25
2022-10-12T03:30:36.781Z,12.23
2022-10-12T03:33:05.190Z,11.40
2022-10-12T03:35:33.543Z,11.77
2022-10-12T03:38:03.081Z,11.77
2022-10-12T03:40:31.328Z,12.05
2022-10-12T03:43:00.018Z,12.55
2022-10-12T03:45:28.118Z,11.18
2022-10-12T03:47:58.975Z,10.82
2022-10-12T03:50:29.640Z,11.75
2022-10-12T03:52:57.980Z,11.57
2022-10-12T03:55:27.555Z,11.15
2022-10-12T03:57:55.785Z,11.02
2022-10-12T04:00:24.213Z,11.25
2022-10-12T04:02:52.501Z,11.45
2022-10-12T04:05:20.778Z,12.95
2022-10-12T04:07:49.022Z,12.48
2022-10-12T04:10:17.220Z,14.68
2022-10-12T04:12:47.124Z,15.52
2022-10-12T04:15:18.288Z,17.45
2022-10-12T04:17:46.861Z,16.63
2022-10-12T04:20:15.038Z,17.55
2022-10-12T04:22:43.364Z,17.08
2022-10-12T04:25:13.126Z,16.40
2022-10-12T04:27:41.382Z,16.13
2022-10-12T04:30:13.014Z,15.55
2022-10-12T04:32:41.248Z,14.65
2022-10-12T04:35:09.856Z,15.07
2022-10-12T04:37:38.720Z,14.35
2022-10-12T04:40:08.649Z,15.82
2022-10-12T04:42:36.737Z,15.68
2022-10-12T04:45:05.608Z,16.98
2022-10-12T04:47:36.764Z,16.48
2022-10-12T04:50:06.861Z,14.50
2022-10-12T04:52:35.120Z,15.05
2022-10-12T04:55:03.209Z,14.60
2022-10-12T04:57:31.717Z,14.80
2022-10-12T04:59:59.848Z,13.88
2022-10-12T05:02:28.002Z,13.85
2022-10-12T05:04:58.214Z,13.40
2022-10-12T05:07:26.575Z,14.10
2022-10-12T05:09:54.813Z,14.52
2022-10-12T05:12:23.222Z,14.20
2022-10-12T05:14:51.431Z,16.13
2022-10-12T05:17:19.594Z,15.95
2022-10-12T05:19:47.800Z,17.05
2022-10-12T05:22:17.657Z,16.88
2022-10-12T05:24:47.997Z,18.05
2022-10-12T05:29:47.559Z,19.85
2022-10-12T05:32:15.755Z,19.27
2022-10-12T05:34:44.728Z,20.35
2022-10-12T05:37:12.882Z,19.83
2022-10-12T05:39:42.485Z,19.83
2022-10-12T05:42:10.952Z,18.60
2022-10-12T05:44:39.065Z,17.95
2022-10-12T05:47:07.245Z,17.65
2022-10-12T05:49:35.808Z,17.73
2022-10-12T05:52:03.870Z,17.40
2022-10-12T05:54:32.076Z,17.38
2022-10-12T05:57:02.062Z,18.08
2022-10-12T05:59:30.150Z,17.63
2022-10-12T06:01:58.568Z,16.98
2022-10-12T06:04:27.165Z,17.30
2022-10-12T06:06:55.533Z,17.92
2022-10-12T06:09:23.976Z,18.48
2022-10-12T06:11:52.281Z,18.00
2022-10-12T06:14:21.762Z,17.00
2022-10-12T06:16:53.799Z,17.25
2022-10-12T06:19:23.167Z,17.80
2022-10-12T06:21:51.532Z,15.93
2022-10-12T06:24:19.649Z,16.75
2022-10-12T06:26:48.326Z,17.75
2022-10-12T06:29:17.560Z,17.80
2022-10-12T06:31:51.429Z,17.60
2022-10-12T06:34:21.020Z,17.77
2022-10-12T06:36:49.613Z,17.55
2022-10-12T06:39:17.753Z,17.95
2022-10-12T06:41:46.848Z,17.50
2022-10-12T06:44:15.237Z,19.77
2022-10-12T06:46:43.350Z,18.70
2022-10-12T06:49:13.510Z,17.73
2022-10-12T06:51:41.699Z,18.77
2022-10-12T06:54:09.758Z,18.50
2022-10-12T06:56:39.736Z,16.92
2022-10-12T06:59:08.417Z,18.95
2022-10-12T07:01:36.576Z,18.88
2022-10-12T07:04:05.067Z,18.02
2022-10-12T07:06:34.859Z,17.90
2022-10-12T07:09:03.056Z,17.92
2022-10-12T07:11:31.557Z,16.55
2022-10-12T07:14:00.022Z,15.65
2022-10-12T07:16:28.714Z,14.55
2022-10-12T07:18:56.990Z,14.70
2022-10-12T07:21:25.179Z,13.63
2022-10-12T07:23:55.080Z,13.45
2022-10-12T07:26:23.619Z,10.93
2022-10-12T07:28:51.761Z,11.00
2022-10-12T07:31:20.229Z,11.48
2022-10-12T07:33:48.969Z,10.95
2022-10-12T07:36:21.554Z,12.55
2022-10-12T07:38:50.506Z,10.85
2022-10-12T07:41:20.048Z,10.90
2022-10-12T07:43:48.293Z,11.10
2022-10-12T07:46:16.846Z,11.95
2022-10-12T07:48:49.958Z,11.15
2022-10-12T07:51:19.650Z,10.95
2022-10-12T07:53:48.481Z,11.13
2022-10-12T07:56:16.707Z,11.70
2022-10-12T07:58:50.237Z,11.25
2022-10-12T08:01:19.872Z,10.80
2022-10-12T08:03:48.800Z,11.23
2022-10-12T08:06:19.776Z,10.52
2022-10-12T08:08:48.134Z,11.10
2022-10-12T08:11:17.156Z,10.55
2022-10-12T08:13:47.423Z,11.18
2022-10-12T08:16:18.274Z,10.45
2022-10-12T08:18:46.655Z,10.40
2022-10-12T08:21:16.695Z,10.35
2022-10-12T08:23:45.920Z,9.38
2022-10-12T08:26:15.791Z,9.55
2022-10-12T08:28:44.302Z,10.43
2022-10-12T08:31:16.643Z,9.95
2022-10-12T08:33:45.219Z,8.93
2022-10-12T08:36:14.346Z,10.30
2022-10-12T08:38:43.968Z,10.27
2022-10-12T08:41:30.359Z,10.38
2022-10-12T08:44:11.022Z,10.15
2022-10-12T08:46:40.930Z,9.63
2022-10-12T08:49:15.710Z,9.73
2022-10-12T08:51:48.153Z,9.27
2022-10-12T08:54:18.442Z,9.80
2022-10-12T08:56:48.456Z,9.10
2022-10-12T08:59:20.013Z,8.50
2022-10-12T09:02:03.051Z,8.13
2022-10-12T09:04:54.594Z,8.15
2022-10-12T09:07:28.706Z,7.90
2022-10-12T09:10:09.981Z,7.07
2022-10-12T09:12:48.476Z,7.72
2022-10-12T09:15:19.830Z,8.20
2022-10-12T09:17:52.126Z,8.98
2022-10-12T09:20:23.534Z,7.95
2022-10-12T09:22:55.507Z,7.65
2022-10-12T09:25:26.960Z,8.90
2022-10-12T09:27:58.647Z,8.82
2022-10-12T09:30:26.906Z,9.48
2022-10-12T09:33:15.520Z,8.52
2022-10-12T09:35:46.303Z,9.73
2022-10-12T09:38:15.354Z,9.85
2022-10-12T09:40:44.027Z,9.65
2022-10-12T09:43:12.923Z,10.27
2022-10-12T09:45:41.216Z,10.38
2022-10-12T09:48:20.218Z,9.80
2022-10-12T09:50:53.532Z,9.10
2022-10-12T09:53:32.003Z,9.35
2022-10-12T09:56:07.161Z,9.07
2022-10-12T09:58:42.882Z,8.75
2022-10-12T10:01:23.962Z,8.10
2022-10-12T10:04:10.902Z,7.95
2022-10-12T10:06:40.977Z,8.85
2022-10-12T10:09:29.620Z,9.00
2022-10-12T10:11:58.870Z,8.90
2022-10-12T10:14:27.189Z,10.20
2022-10-12T10:16:56.233Z,8.80
2022-10-12T10:19:26.552Z,10.07
2022-10-12T10:21:56.668Z,9.65
2022-10-12T10:24:28.773Z,10.10
2022-10-12T10:26:59.999Z,9.45
2022-10-12T10:29:40.147Z,8.82
2022-10-12T10:32:14.359Z,10.13
2022-10-12T10:34:44.281Z,10.57
2022-10-12T10:37:21.634Z,8.50
2022-10-12T10:39:52.798Z,7.45
2022-10-12T10:42:23.740Z,6.70
2022-10-12T10:44:54.141Z,7.30
2022-10-12T10:47:22.249Z,7.20
2022-10-12T10:49:56.019Z,6.85
2022-10-12T10:52:26.499Z,7.00
2022-10-12T10:55:19.139Z,6.93
2022-10-12T10:57:52.226Z,5.90
2022-10-12T11:00:39.698Z,6.43
2022-10-12T11:03:15.035Z,6.72
2022-10-12T11:05:51.749Z,5.32
2022-10-12T11:08:24.208Z,5.65
2022-10-12T11:10:59.166Z,5.95
2022-10-12T11:13:32.814Z,5.80
2022-10-12T11:18:38.778Z,5.80
2022-10-12T11:21:13.527Z,5.55
2022-10-12T11:23:47.106Z,5.63
2022-10-12T11:28:48.616Z,5.05
2022-10-12T11:31:23.819Z,4.70
2022-10-12T11:33:53.693Z,4.90
2022-10-12T11:36:27.360Z,4.85
2022-10-12T11:39:03.211Z,4.45
2022-10-12T11:41:57.468Z,5.38
2022-10-12T11:44:41.015Z,3.88
2022-10-12T11:47:16.015Z,4.05
2022-10-12T11:49:52.266Z,4.57
2022-10-12T11:52:28.527Z,4.75
2022-10-12T11:55:04.356Z,4.28
2022-10-12T11:57:37.094Z,4.28
2022-10-12T12:00:08.212Z,4.20
2022-10-12T12:02:42.306Z,4.80
2022-10-12T12:05:16.755Z,4.57
2022-10-12T12:07:49.957Z,4.07
2022-10-12T12:11:03.861Z,4.43
2022-10-12T12:13:33.403Z,4.47
2022-10-12T12:16:35.044Z,4.60
2022-10-12T12:19:43.338Z,4.50
2022-10-12T12:22:29.937Z,4.90
2022-10-12T12:25:07.084Z,4.43
2022-10-12T12:27:38.857Z,4.18
2022-10-12T12:30:24.527Z,4.93
2022-10-12T12:32:55.733Z,4.40
2022-10-12T12:35:28.322Z,4.30
2022-10-12T12:38:19.926Z,4.47
2022-10-12T12:41:08.429Z,4.95
2022-10-12T12:43:52.830Z,4.75
2022-10-12T12:46:22.113Z,3.95
2022-10-12T12:49:01.944Z,3.45
2022-10-12T12:51:42.104Z,3.53
2022-10-12T12:54:19.038Z,3.33
2022-10-12T12:57:11.479Z,3.50
2022-10-12T12:59:53.196Z,3.35
2022-10-12T13:02:53.372Z,3.25
2022-10-12T13:05:55.166Z,3.85
2022-10-12T13:08:34.360Z,3.78
2022-10-12T13:11:37.825Z,3.70
2022-10-12T13:14:17.809Z,3.53
2022-10-12T13:19:55.839Z,3.90
2022-10-12T13:22:30.587Z,3.95
2022-10-12T13:25:03.377Z,3.88
2022-10-12T13:27:35.716Z,3.73
2022-10-12T13:30:14.405Z,3.40
2022-10-12T13:32:48.876Z,3.33
2022-10-12T13:35:24.377Z,3.33
2022-10-12T13:38:05.781Z,3.78
2022-10-12T13:40:38.489Z,3.85
2022-10-12T13:43:20.898Z,3.67
2022-10-12T13:45:51.213Z,3.95
2022-10-12T13:48:39.899Z,4.28
2022-10-12T13:51:23.755Z,3.65
2022-10-12T13:53:52.021Z,4.40
2022-10-12T13:56:22.975Z,4.07
2022-10-12T13:58:55.128Z,4.20
2022-10-12T14:01:24.905Z,3.90
2022-10-12T14:03:53.014Z,4.45
2022-10-12T14:06:29.685Z,4.50
2022-10-12T14:08:59.114Z,4.32
2022-10-12T14:11:28.320Z,4.78
2022-10-12T14:13:57.633Z,4.70
2022-10-12T14:16:27.218Z,5.18
2022-10-12T14:18:55.630Z,3.92
2022-10-12T14:21:27.067Z,4.72
2022-10-12T14:23:58.214Z,4.40
2022-10-12T14:26:32.618Z,5.32
2022-10-12T14:29:21.634Z,5.20
2022-10-12T14:31:56.446Z,5.65
2022-10-12T14:34:40.936Z,5.47
2022-10-12T14:37:26.495Z,6.40
2022-10-12T14:40:00.399Z,5.38
2022-10-12T14:42:31.767Z,6.35
2022-10-12T14:45:00.546Z,6.10
2022-10-12T14:47:33.080Z,5.57
2022-10-12T14:50:07.794Z,5.47
2022-10-12T14:52:43.809Z,5.53
2022-10-12T14:55:16.622Z,6.63
2022-10-12T14:57:45.272Z,6.70
2022-10-12T15:00:16.308Z,6.13
2022-10-12T15:02:46.766Z,6.30
2022-10-12T15:05:16.908Z,5.80
2022-10-12T15:07:46.912Z,6.00
2022-10-12T15:10:15.874Z,6.35
2022-10-12T15:12:45.055Z,6.40
2022-10-12T15:15:26.547Z,5.82
2022-10-12T15:17:58.881Z,5.22
2022-10-12T15:20:27.518Z,5.95
2022-10-12T15:22:55.621Z,5.05
2022-10-12T15:25:27.340Z,5.82
2022-10-12T15:27:55.701Z,5.57
2022-10-12T15:30:23.822Z,4.85
2022-10-12T15:32:52.461Z,4.50
2022-10-12T15:35:24.333Z,5.75
2022-10-12T15:37:53.631Z,6.25
2022-10-12T15:40:22.238Z,6.63
2022-10-12T15:42:50.804Z,6.70
2022-10-12T15:45:23.762Z,6.00
2022-10-12T15:47:53.548Z,6.20
2022-10-12T15:50:26.004Z,5.68
2022-10-12T15:52:54.611Z,5.75
2022-10-12T15:55:25.416Z,6.35
2022-10-12T15:57:53.980Z,6.00
2022-10-12T16:00:25.978Z,6.35
2022-10-12T16:02:54.908Z,6.47
2022-10-12T16:05:27.110Z,6.88
2022-10-12T16:07:56.310Z,7.78
2022-10-12T16:10:26.818Z,7.55
2022-10-12T16:12:56.007Z,6.97
2022-10-12T16:15:26.118Z,8.10
2022-10-12T16:17:54.526Z,6.13
2022-10-12T16:20:24.357Z,8.73
2022-10-12T16:22:53.259Z,8.73
2022-10-12T16:25:24.079Z,7.82
2022-10-12T16:27:53.066Z,10.30
2022-10-12T16:30:22.268Z,7.80
2022-10-12T16:32:50.716Z,6.90
2022-10-12T16:35:19.048Z,7.28
2022-10-12T16:37:48.694Z,7.25
2022-10-12T16:40:17.610Z,7.40
2022-10-12T16:42:46.112Z,8.13
2022-10-12T16:45:14.664Z,11.73
2022-10-12T16:47:43.256Z,9.38
2022-10-12T16:50:11.683Z,7.88
2022-10-12T16:52:40.240Z,7.35
2022-10-12T16:55:10.593Z,7.07
2022-10-12T16:57:38.844Z,7.82
2022-10-12T17:00:08.874Z,7.95
2022-10-12T17:02:37.591Z,7.13
2022-10-12T17:05:06.671Z,6.35
2022-10-12T17:07:35.077Z,6.95
2022-10-12T17:10:03.421Z,6.97
2022-10-12T17:12:33.011Z,6.80
2022-10-12T17:15:01.325Z,6.90
2022-10-12T17:17:29.645Z,7.32
2022-10-12T17:19:57.948Z,6.72
2022-10-12T17:22:26.390Z,6.70
2022-10-12T17:24:54.691Z,6.50
2022-10-12T17:27:22.880Z,7.35
2022-10-12T17:29:52.647Z,9.00
2022-10-12T17:32:20.909Z,7.88
2022-10-12T17:34:49.154Z,7.43
2022-10-12T17:37:17.548Z,8.00
2022-10-12T17:39:48.408Z,7.47
2022-10-12T17:42:17.129Z,8.48
2022-10-12T17:44:45.566Z,8.15
2022-10-12T17:47:15.437Z,7.90
2022-10-12T17:49:43.922Z,8.32
2022-10-12T17:52:12.244Z,8.93
2022-10-12T17:54:40.910Z,8.70
2022-10-12T17:57:09.040Z,8.00
2022-10-12T17:59:37.181Z,9.15
2022-10-12T18:02:09.364Z,9.10
2022-10-12T18:04:39.294Z,9.35
2022-10-12T18:07:07.579Z,9.00
2022-10-12T18:09:35.780Z,8.13
2022-10-12T18:12:04.157Z,9.10
2022-10-12T18:14:32.658Z,8.93
2022-10-12T18:17:00.921Z,9.35
2022-10-12T18:19:29.224Z,10.27
2022-10-12T18:21:58.959Z,9.05
2022-10-12T18:24:27.121Z,8.90
2022-10-12T18:26:55.447Z,9.57
2022-10-12T18:29:24.000Z,9.65
2022-10-12T18:31:53.152Z,9.98
2022-10-12T18:34:21.365Z,10.10
2022-10-12T18:36:49.826Z,11.25
2022-10-12T18:39:19.637Z,12.63
2022-10-12T18:41:51.707Z,12.43
2022-10-12T18:44:21.195Z,10.00
2022-10-12T18:46:49.623Z,9.32
2022-10-12T18:49:18.224Z,9.77
2022-10-12T18:51:49.758Z,9.65
2022-10-12T18:54:19.455Z,10.02
2022-10-12T18:56:48.380Z,9.48
2022-10-12T18:59:18.094Z,9.77
2022-10-12T19:01:46.808Z,9.85
2022-10-12T19:04:15.166Z,10.07
2022-10-12T19:06:44.324Z,9.95
2022-10-12T19:09:14.630Z,9.23
2022-10-12T19:11:44.421Z,9.43
2022-10-12T19:14:15.245Z,10.43
2022-10-12T19:16:44.773Z,9.63
2022-10-12T19:19:20.568Z,9.85
2022-10-12T19:21:50.473Z,9.90
2022-10-12T19:24:19.713Z,10.38
2022-10-12T19:26:49.764Z,9.85
2022-10-12T19:29:18.288Z,10.18
2022-10-12T19:31:48.879Z,9.73
2022-10-12T19:34:19.712Z,9.70
2022-10-12T19:36:48.159Z,9.82
2022-10-12T19:39:18.975Z,10.88
2022-10-12T19:41:49.679Z,10.80
2022-10-12T19:44:19.143Z,10.60
2022-10-12T19:46:49.212Z,12.02
2022-10-12T19:49:19.505Z,11.63
2022-10-12T19:51:48.062Z,12.00
2022-10-12T19:54:16.809Z,12.13
2022-10-12T19:56:45.184Z,12.10
2022-10-12T19:59:14.689Z,11.90
2022-10-12T20:01:48.100Z,11.70
2022-10-12T20:04:16.440Z,11.85
2022-10-12T20:06:44.844Z,11.90
2022-10-12T20:09:13.410Z,12.70
2022-10-12T20:11:41.770Z,12.45
2022-10-12T20:14:11.321Z,12.40
2022-10-12T20:16:40.873Z,13.55
2022-10-12T20:19:09.485Z,13.73
2022-10-12T20:21:37.789Z,12.38
2022-10-12T20:24:09.097Z,12.88
2022-10-12T20:26:37.502Z,12.52
2022-10-12T20:29:06.053Z,12.77
2022-10-12T20:31:34.404Z,12.77
2022-10-12T20:34:04.491Z,12.20
2022-10-12T20:36:32.998Z,12.60
2022-10-12T20:39:01.767Z,12.18
2022-10-12T20:41:30.189Z,11.98
2022-10-12T20:43:59.903Z,12.85
2022-10-12T20:46:29.281Z,12.07
2022-10-12T20:48:59.298Z,12.35
2022-10-12T20:51:30.839Z,11.35
2022-10-12T20:54:01.211Z,12.85
2022-10-12T20:56:29.540Z,13.00
2022-10-12T20:58:57.947Z,12.90
2022-10-12T21:01:27.287Z,12.93
2022-10-12T21:03:55.583Z,13.73
2022-10-12T21:06:24.431Z,12.88
2022-10-12T21:08:55.470Z,13.05
2022-10-12T21:11:24.696Z,12.65
2022-10-12T21:13:52.971Z,13.30
2022-10-12T21:16:21.445Z,13.80
2022-10-12T21:18:50.198Z,13.00
2022-10-12T21:21:20.511Z,13.48
2022-10-12T21:23:55.353Z,12.75
2022-10-12T21:26:24.855Z,12.15
2022-10-12T21:28:53.530Z,11.75
2022-10-12T21:31:23.435Z,12.25
2022-10-12T21:33:53.489Z,12.75
2022-10-12T21:36:23.848Z,12.50
2022-10-12T21:38:53.976Z,12.35
2022-10-12T21:41:24.044Z,12.60
2022-10-12T21:43:53.073Z,12.00
2022-10-12T21:46:23.543Z,12.07
2022-10-12T21:48:52.761Z,12.48
2022-10-12T21:51:22.931Z,11.93
2022-10-12T21:53:51.577Z,11.80
2022-10-12T21:56:22.830Z,11.77
2022-10-12T21:58:52.230Z,10.98
2022-10-12T22:01:23.281Z,11.23
2022-10-12T22:03:54.762Z,11.23
2022-10-12T22:06:24.833Z,10.52
2022-10-12T22:08:54.959Z,10.88
2022-10-12T22:11:27.406Z,10.57
2022-10-12T22:13:59.735Z,10.45
2022-10-12T22:16:29.340Z,11.07
2022-10-12T22:18:59.615Z,10.13
2022-10-12T22:21:28.544Z,10.60
2022-10-12T22:23:56.847Z,10.30
2022-10-12T22:26:27.042Z,10.88
2022-10-12T22:28:55.257Z,11.07
2022-10-12T22:31:24.973Z,11.25
2022-10-12T22:33:53.658Z,10.88
2022-10-12T22:36:22.051Z,10.60
2022-10-12T22:38:50.323Z,10.55
2022-10-12T22:41:20.218Z,11.18
2022-10-12T22:43:50.741Z,10.88
2022-10-12T22:46:20.646Z,10.88
2022-10-12T22:48:49.497Z,10.30
2022-10-12T22:51:21.797Z,10.52
2022-10-12T22:53:50.270Z,11.07
2022-10-12T22:56:19.860Z,10.50
2022-10-12T22:58:54.255Z,10.57
2022-10-12T23:01:22.557Z,10.50
2022-10-12T23:03:50.660Z,10.70
2022-10-12T23:06:20.027Z,10.48
2022-10-12T23:08:48.851Z,11.02
2022-10-12T23:11:19.193Z,10.35
2022-10-12T23:13:49.363Z,10.55
2022-10-12T23:16:20.043Z,10.90
2022-10-12T23:18:48.377Z,10.75
2022-10-12T23:21:18.648Z,10.55
2022-10-12T23:23:47.833Z,10.25
2022-10-12T23:26:18.033Z,10.55
2022-10-12T23:28:47.221Z,10.32
2022-10-12T23:31:18.802Z,10.65
2022-10-12T23:33:47.912Z,10.90
2022-10-12T23:36:17.969Z,9.93
2022-10-12T23:38:46.615Z,10.27
2022-10-12T23:41:15.352Z,10.35
2022-10-12T23:43:43.555Z,10.05
2022-10-12T23:46:13.626Z,9.77
2022-10-12T23:48:43.345Z,9.55
2022-10-12T23:51:12.069Z,10.68
2022-10-12T23:53:41.954Z,10.52
2022-10-12T23:56:10.461Z,10.10
2022-10-12T23:58:38.790Z,10.55
